sensor_id;sensor_type;location;lat;lon;timestamp;P1;durP1;ratioP1;P2;durP2;ratioP2
60867;SDS011;46702;48.370;10.794;2024-01-15T00:01:52;7.80;;;4.15;;
60867;SDS011;46702;48.370;10.794;2024-01-15T00:04:18;8.65;;;5.18;;
60867;SDS011;46702;48.370;10.794;2024-01-15T00:06:44;10.48;;;4.97;;
60867;SDS011;46702;48.370;10.794;2024-01-15T00:09:09;7.70;;;4.10;;
60867;SDS011;46702;48.370;10.794;2024-01-15T00:11:35;9.60;;;4.68;;
60867;SDS011;46702;48.370;10.794;2024-01-15T00:14:00;5.28;;;4.55;;
60867;SDS011;46702;48.370;10.794;2024-01-15T00:16:26;6.93;;;4.13;;
60867;SDS011;46702;48.370;10.794;2024-01-15T00:18:52;4.72;;;3.72;;
60867;SDS011;46702;48.370;10.794;2024-01-15T00:21:17;5.32;;;4.43;;
60867;SDS011;46702;48.370;10.794;2024-01-15T00:23:43;5.45;;;4.63;;
60867;SDS011;46702;48.370;10.794;2024-01-15T00:26:12;7.65;;;3.58;;
60867;SDS011;46702;48.370;10.794;2024-01-15T00:28:38;6.70;;;4.13;;
60867;SDS011;46702;48.370;10.794;2024-01-15T00:31:04;7.68;;;5.32;;
60867;SDS011;46702;48.370;10.794;2024-01-15T00:33:30;7.38;;;5.00;;
60867;SDS011;46702;48.370;10.794;2024-01-15T00:35:56;3.95;;;3.50;;
60867;SDS011;46702;48.370;10.794;2024-01-15T00:38:22;11.65;;;6.38;;
60867;SDS011;46702;48.370;10.794;2024-01-15T00:40:47;10.43;;;5.38;;
60867;SDS011;46702;48.370;10.794;2024-01-15T00:43:13;8.10;;;5.40;;
60867;SDS011;46702;48.370;10.794;2024-01-15T00:45:39;8.27;;;5.18;;
60867;SDS011;46702;48.370;10.794;2024-01-15T00:48:05;10.43;;;6.20;;
60867;SDS011;46702;48.370;10.794;2024-01-15T00:50:31;11.68;;;5.78;;
60867;SDS011;46702;48.370;10.794;2024-01-15T00:52:57;4.38;;;3.97;;
60867;SDS011;46702;48.370;10.794;2024-01-15T00:55:22;13.43;;;6.68;;
60867;SDS011;46702;48.370;10.794;2024-01-15T00:57:48;9.43;;;6.55;;
60867;SDS011;46702;48.370;10.794;2024-01-15T01:00:14;8.48;;;4.72;;
60867;SDS011;46702;48.370;10.794;2024-01-15T01:02:39;14.30;;;8.35;;
60867;SDS011;46702;48.370;10.794;2024-01-15T01:05:05;6.93;;;4.78;;
60867;SDS011;46702;48.370;10.794;2024-01-15T01:07:31;6.82;;;5.30;;
60867;SDS011;46702;48.370;10.794;2024-01-15T01:09:56;7.90;;;6.18;;
60867;SDS011;46702;48.370;10.794;2024-01-15T01:12:22;6.07;;;3.53;;
60867;SDS011;46702;48.370;10.794;2024-01-15T01:14:47;3.35;;;3.05;;
60867;SDS011;46702;48.370;10.794;2024-01-15T01:17:13;11.90;;;5.65;;
60867;SDS011;46702;48.370;10.794;2024-01-15T01:19:39;7.10;;;3.50;;
60867;SDS011;46702;48.370;10.794;2024-01-15T01:22:04;8.07;;;5.05;;
60867;SDS011;46702;48.370;10.794;2024-01-15T01:24:30;2.40;;;1.85;;
60867;SDS011;46702;48.370;10.794;2024-01-15T01:26:55;5.90;;;2.58;;
60867;SDS011;46702;48.370;10.794;2024-01-15T01:29:21;3.33;;;2.72;;
60867;SDS011;46702;48.370;10.794;2024-01-15T01:31:47;3.95;;;3.42;;
60867;SDS011;46702;48.370;10.794;2024-01-15T01:34:14;8.73;;;5.55;;
60867;SDS011;46702;48.370;10.794;2024-01-15T01:36:40;5.05;;;3.85;;
60867;SDS011;46702;48.370;10.794;2024-01-15T01:39:06;8.05;;;4.78;;
60867;SDS011;46702;48.370;10.794;2024-01-15T01:41:32;3.28;;;2.72;;
60867;SDS011;46702;48.370;10.794;2024-01-15T01:43:57;8.07;;;4.47;;
60867;SDS011;46702;48.370;10.794;2024-01-15T01:46:23;4.63;;;3.85;;
60867;SDS011;46702;48.370;10.794;2024-01-15T01:48:51;4.38;;;3.97;;
60867;SDS011;46702;48.370;10.794;2024-01-15T01:51:17;9.38;;;4.90;;
60867;SDS011;46702;48.370;10.794;2024-01-15T01:53:44;5.82;;;4.13;;
60867;SDS011;46702;48.370;10.794;2024-01-15T01:56:10;7.60;;;4.25;;
60867;SDS011;46702;48.370;10.794;2024-01-15T01:58:37;6.05;;;3.95;;
60867;SDS011;46702;48.370;10.794;2024-01-15T02:01:03;6.25;;;3.95;;
60867;SDS011;46702;48.370;10.794;2024-01-15T02:03:30;6.95;;;4.55;;
60867;SDS011;46702;48.370;10.794;2024-01-15T02:05:56;7.80;;;4.90;;
60867;SDS011;46702;48.370;10.794;2024-01-15T02:08:22;2.75;;;2.55;;
60867;SDS011;46702;48.370;10.794;2024-01-15T02:10:48;9.00;;;4.28;;
60867;SDS011;46702;48.370;10.794;2024-01-15T02:13:13;6.35;;;4.65;;
60867;SDS011;46702;48.370;10.794;2024-01-15T02:15:39;11.32;;;5.35;;
60867;SDS011;46702;48.370;10.794;2024-01-15T02:18:05;3.10;;;2.92;;
60867;SDS011;46702;48.370;10.794;2024-01-15T02:20:34;12.77;;;7.22;;
60867;SDS011;46702;48.370;10.794;2024-01-15T02:23:07;7.22;;;3.40;;
60867;SDS011;46702;48.370;10.794;2024-01-15T02:25:38;9.27;;;4.43;;
60867;SDS011;46702;48.370;10.794;2024-01-15T02:28:06;4.28;;;3.20;;
60867;SDS011;46702;48.370;10.794;2024-01-15T02:30:34;2.40;;;2.33;;
60867;SDS011;46702;48.370;10.794;2024-01-15T02:33:05;2.47;;;2.38;;
60867;SDS011;46702;48.370;10.794;2024-01-15T02:35:32;11.35;;;5.55;;
60867;SDS011;46702;48.370;10.794;2024-01-15T02:37:58;5.18;;;3.92;;
60867;SDS011;46702;48.370;10.794;2024-01-15T02:40:24;6.68;;;4.38;;
60867;SDS011;46702;48.370;10.794;2024-01-15T02:42:50;7.10;;;4.65;;
60867;SDS011;46702;48.370;10.794;2024-01-15T02:45:15;5.43;;;3.25;;
60867;SDS011;46702;48.370;10.794;2024-01-15T02:47:41;6.05;;;3.78;;
60867;SDS011;46702;48.370;10.794;2024-01-15T02:50:07;5.10;;;3.25;;
60867;SDS011;46702;48.370;10.794;2024-01-15T02:52:32;3.60;;;3.22;;
60867;SDS011;46702;48.370;10.794;2024-01-15T02:54:58;6.80;;;2.65;;
60867;SDS011;46702;48.370;10.794;2024-01-15T02:57:24;4.63;;;2.75;;
60867;SDS011;46702;48.370;10.794;2024-01-15T02:59:49;2.65;;;2.50;;
60867;SDS011;46702;48.370;10.794;2024-01-15T03:02:15;4.22;;;3.60;;
60867;SDS011;46702;48.370;10.794;2024-01-15T03:04:44;5.28;;;3.42;;
60867;SDS011;46702;48.370;10.794;2024-01-15T03:09:35;2.38;;;2.28;;
60867;SDS011;46702;48.370;10.794;2024-01-15T03:12:00;5.32;;;4.10;;
60867;SDS011;46702;48.370;10.794;2024-01-15T03:14:26;5.57;;;3.97;;
60867;SDS011;46702;48.370;10.794;2024-01-15T03:16:52;3.03;;;2.55;;
60867;SDS011;46702;48.370;10.794;2024-01-15T03:19:18;4.30;;;2.67;;
60867;SDS011;46702;48.370;10.794;2024-01-15T03:21:43;2.80;;;2.47;;
60867;SDS011;46702;48.370;10.794;2024-01-15T03:24:09;4.00;;;3.63;;
60867;SDS011;46702;48.370;10.794;2024-01-15T03:26:34;2.88;;;2.65;;
60867;SDS011;46702;48.370;10.794;2024-01-15T03:29:00;6.88;;;2.72;;
60867;SDS011;46702;48.370;10.794;2024-01-15T03:31:25;4.68;;;2.75;;
60867;SDS011;46702;48.370;10.794;2024-01-15T03:33:51;3.72;;;3.15;;
60867;SDS011;46702;48.370;10.794;2024-01-15T03:36:17;5.80;;;3.67;;
60867;SDS011;46702;48.370;10.794;2024-01-15T03:38:42;4.38;;;2.85;;
60867;SDS011;46702;48.370;10.794;2024-01-15T03:41:08;7.97;;;4.03;;
60867;SDS011;46702;48.370;10.794;2024-01-15T03:43:33;6.28;;;4.90;;
60867;SDS011;46702;48.370;10.794;2024-01-15T03:45:59;5.35;;;3.33;;
60867;SDS011;46702;48.370;10.794;2024-01-15T03:48:24;4.32;;;3.72;;
60867;SDS011;46702;48.370;10.794;2024-01-15T03:50:50;9.00;;;3.92;;
60867;SDS011;46702;48.370;10.794;2024-01-15T03:53:16;13.35;;;5.40;;
60867;SDS011;46702;48.370;10.794;2024-01-15T03:55:42;3.97;;;2.95;;
60867;SDS011;46702;48.370;10.794;2024-01-15T03:58:07;6.38;;;4.32;;
60867;SDS011;46702;48.370;10.794;2024-01-15T04:00:33;3.97;;;3.58;;
60867;SDS011;46702;48.370;10.794;2024-01-15T04:02:59;5.25;;;3.95;;
60867;SDS011;46702;48.370;10.794;2024-01-15T04:05:25;3.30;;;3.08;;
60867;SDS011;46702;48.370;10.794;2024-01-15T04:07:51;4.65;;;3.08;;
60867;SDS011;46702;48.370;10.794;2024-01-15T04:10:17;8.38;;;4.57;;
60867;SDS011;46702;48.370;10.794;2024-01-15T04:12:42;4.90;;;3.53;;
60867;SDS011;46702;48.370;10.794;2024-01-15T04:15:08;4.65;;;3.38;;
60867;SDS011;46702;48.370;10.794;2024-01-15T04:17:33;2.58;;;2.42;;
60867;SDS011;46702;48.370;10.794;2024-01-15T04:19:59;3.28;;;3.08;;
60867;SDS011;46702;48.370;10.794;2024-01-15T04:22:25;8.40;;;3.70;;
60867;SDS011;46702;48.370;10.794;2024-01-15T04:24:51;5.10;;;3.28;;
60867;SDS011;46702;48.370;10.794;2024-01-15T04:27:17;4.85;;;2.65;;
60867;SDS011;46702;48.370;10.794;2024-01-15T04:29:43;2.85;;;2.55;;
60867;SDS011;46702;48.370;10.794;2024-01-15T04:32:09;5.82;;;3.90;;
60867;SDS011;46702;48.370;10.794;2024-01-15T04:34:35;5.50;;;4.07;;
60867;SDS011;46702;48.370;10.794;2024-01-15T04:37:01;5.47;;;3.40;;
60867;SDS011;46702;48.370;10.794;2024-01-15T04:39:26;7.25;;;4.07;;
60867;SDS011;46702;48.370;10.794;2024-01-15T04:41:52;5.45;;;4.80;;
60867;SDS011;46702;48.370;10.794;2024-01-15T04:44:18;3.53;;;3.13;;
60867;SDS011;46702;48.370;10.794;2024-01-15T04:46:44;3.50;;;2.97;;
60867;SDS011;46702;48.370;10.794;2024-01-15T04:49:09;4.00;;;2.65;;
60867;SDS011;46702;48.370;10.794;2024-01-15T04:51:35;4.22;;;3.85;;
60867;SDS011;46702;48.370;10.794;2024-01-15T04:54:01;3.92;;;3.08;;
60867;SDS011;46702;48.370;10.794;2024-01-15T04:56:26;4.82;;;1.70;;
60867;SDS011;46702;48.370;10.794;2024-01-15T04:58:52;5.38;;;3.40;;
60867;SDS011;46702;48.370;10.794;2024-01-15T05:01:17;5.05;;;2.80;;
60867;SDS011;46702;48.370;10.794;2024-01-15T05:03:43;4.68;;;2.90;;
60867;SDS011;46702;48.370;10.794;2024-01-15T05:06:09;6.70;;;4.13;;
60867;SDS011;46702;48.370;10.794;2024-01-15T05:08:34;6.35;;;3.20;;
60867;SDS011;46702;48.370;10.794;2024-01-15T05:11:00;3.80;;;3.33;;
60867;SDS011;46702;48.370;10.794;2024-01-15T05:13:25;2.28;;;2.08;;
60867;SDS011;46702;48.370;10.794;2024-01-15T05:15:52;5.07;;;2.10;;
60867;SDS011;46702;48.370;10.794;2024-01-15T05:18:17;2.40;;;2.30;;
60867;SDS011;46702;48.370;10.794;2024-01-15T05:20:43;5.97;;;3.00;;
60867;SDS011;46702;48.370;10.794;2024-01-15T05:23:09;1.60;;;1.52;;
60867;SDS011;46702;48.370;10.794;2024-01-15T05:25:34;2.22;;;2.05;;
60867;SDS011;46702;48.370;10.794;2024-01-15T05:28:00;3.90;;;2.20;;
60867;SDS011;46702;48.370;10.794;2024-01-15T05:30:26;4.45;;;3.50;;
60867;SDS011;46702;48.370;10.794;2024-01-15T05:32:51;1.85;;;1.73;;
60867;SDS011;46702;48.370;10.794;2024-01-15T05:35:17;3.05;;;2.75;;
60867;SDS011;46702;48.370;10.794;2024-01-15T05:37:43;5.10;;;2.88;;
60867;SDS011;46702;48.370;10.794;2024-01-15T05:40:13;2.70;;;2.35;;
60867;SDS011;46702;48.370;10.794;2024-01-15T05:42:39;2.53;;;2.22;;
60867;SDS011;46702;48.370;10.794;2024-01-15T05:45:05;2.97;;;2.67;;
60867;SDS011;46702;48.370;10.794;2024-01-15T05:47:31;4.07;;;3.05;;
60867;SDS011;46702;48.370;10.794;2024-01-15T05:49:57;6.43;;;2.95;;
60867;SDS011;46702;48.370;10.794;2024-01-15T05:52:23;4.53;;;3.45;;
60867;SDS011;46702;48.370;10.794;2024-01-15T05:54:49;4.82;;;2.67;;
60867;SDS011;46702;48.370;10.794;2024-01-15T05:57:15;4.57;;;2.65;;
60867;SDS011;46702;48.370;10.794;2024-01-15T05:59:40;5.68;;;3.38;;
60867;SDS011;46702;48.370;10.794;2024-01-15T06:02:07;4.43;;;3.38;;
60867;SDS011;46702;48.370;10.794;2024-01-15T06:04:33;5.07;;;3.00;;
60867;SDS011;46702;48.370;10.794;2024-01-15T06:06:59;6.65;;;3.42;;
60867;SDS011;46702;48.370;10.794;2024-01-15T06:09:24;16.55;;;8.57;;
60867;SDS011;46702;48.370;10.794;2024-01-15T06:11:50;35.22;;;16.42;;
60867;SDS011;46702;48.370;10.794;2024-01-15T06:14:15;11.57;;;6.72;;
60867;SDS011;46702;48.370;10.794;2024-01-15T06:16:41;18.00;;;9.50;;
60867;SDS011;46702;48.370;10.794;2024-01-15T06:19:07;31.05;;;14.93;;
60867;SDS011;46702;48.370;10.794;2024-01-15T06:21:33;58.47;;;29.58;;
60867;SDS011;46702;48.370;10.794;2024-01-15T06:23:58;22.20;;;10.27;;
60867;SDS011;46702;48.370;10.794;2024-01-15T06:26:24;6.28;;;4.13;;
60867;SDS011;46702;48.370;10.794;2024-01-15T06:28:49;4.00;;;3.58;;
60867;SDS011;46702;48.370;10.794;2024-01-15T06:31:15;6.95;;;4.60;;
60867;SDS011;46702;48.370;10.794;2024-01-15T06:33:41;7.63;;;3.85;;
60867;SDS011;46702;48.370;10.794;2024-01-15T06:36:07;5.60;;;3.47;;
60867;SDS011;46702;48.370;10.794;2024-01-15T06:38:33;3.00;;;2.70;;
60867;SDS011;46702;48.370;10.794;2024-01-15T06:40:58;2.55;;;2.33;;
60867;SDS011;46702;48.370;10.794;2024-01-15T06:43:24;2.20;;;2.00;;
60867;SDS011;46702;48.370;10.794;2024-01-15T06:45:49;2.88;;;2.67;;
60867;SDS011;46702;48.370;10.794;2024-01-15T06:48:15;6.47;;;2.85;;
60867;SDS011;46702;48.370;10.794;2024-01-15T06:50:41;2.67;;;2.50;;
60867;SDS011;46702;48.370;10.794;2024-01-15T06:53:07;4.93;;;3.40;;
60867;SDS011;46702;48.370;10.794;2024-01-15T06:55:33;3.88;;;2.38;;
60867;SDS011;46702;48.370;10.794;2024-01-15T06:57:59;2.78;;;1.95;;
60867;SDS011;46702;48.370;10.794;2024-01-15T07:00:25;3.78;;;2.58;;
60867;SDS011;46702;48.370;10.794;2024-01-15T07:02:51;2.33;;;2.13;;
60867;SDS011;46702;48.370;10.794;2024-01-15T07:05:17;4.65;;;3.40;;
60867;SDS011;46702;48.370;10.794;2024-01-15T07:07:42;6.65;;;3.55;;
60867;SDS011;46702;48.370;10.794;2024-01-15T07:10:08;3.65;;;3.30;;
60867;SDS011;46702;48.370;10.794;2024-01-15T07:12:34;2.28;;;2.15;;
60867;SDS011;46702;48.370;10.794;2024-01-15T07:15:00;3.03;;;1.75;;
60867;SDS011;46702;48.370;10.794;2024-01-15T07:17:26;3.97;;;3.42;;
60867;SDS011;46702;48.370;10.794;2024-01-15T07:19:53;2.85;;;2.30;;
60867;SDS011;46702;48.370;10.794;2024-01-15T07:22:18;3.53;;;2.45;;
60867;SDS011;46702;48.370;10.794;2024-01-15T07:24:44;3.80;;;3.35;;
60867;SDS011;46702;48.370;10.794;2024-01-15T07:27:10;5.65;;;4.03;;
60867;SDS011;46702;48.370;10.794;2024-01-15T07:29:36;4.75;;;3.10;;
60867;SDS011;46702;48.370;10.794;2024-01-15T07:32:02;8.18;;;2.53;;
60867;SDS011;46702;48.370;10.794;2024-01-15T07:34:28;6.95;;;3.00;;
60867;SDS011;46702;48.370;10.794;2024-01-15T07:36:57;3.33;;;2.90;;
60867;SDS011;46702;48.370;10.794;2024-01-15T07:39:23;1.60;;;1.60;;
60867;SDS011;46702;48.370;10.794;2024-01-15T07:41:49;3.90;;;2.63;;
60867;SDS011;46702;48.370;10.794;2024-01-15T07:44:18;1.85;;;1.58;;
60867;SDS011;46702;48.370;10.794;2024-01-15T07:46:44;3.42;;;1.58;;
60867;SDS011;46702;48.370;10.794;2024-01-15T07:49:11;3.35;;;2.15;;
60867;SDS011;46702;48.370;10.794;2024-01-15T07:51:37;1.70;;;1.60;;
60867;SDS011;46702;48.370;10.794;2024-01-15T07:54:02;1.60;;;1.55;;
60867;SDS011;46702;48.370;10.794;2024-01-15T07:56:28;2.53;;;1.50;;
60867;SDS011;46702;48.370;10.794;2024-01-15T07:58:54;1.77;;;1.67;;
60867;SDS011;46702;48.370;10.794;2024-01-15T08:01:19;1.95;;;1.85;;
60867;SDS011;46702;48.370;10.794;2024-01-15T08:03:45;2.13;;;1.90;;
60867;SDS011;46702;48.370;10.794;2024-01-15T08:06:10;2.13;;;2.00;;
60867;SDS011;46702;48.370;10.794;2024-01-15T08:08:36;2.05;;;1.95;;
60867;SDS011;46702;48.370;10.794;2024-01-15T08:11:02;2.70;;;2.13;;
60867;SDS011;46702;48.370;10.794;2024-01-15T08:13:28;1.60;;;1.50;;
60867;SDS011;46702;48.370;10.794;2024-01-15T08:15:54;3.47;;;3.08;;
60867;SDS011;46702;48.370;10.794;2024-01-15T08:18:19;3.10;;;2.80;;
60867;SDS011;46702;48.370;10.794;2024-01-15T08:20:46;2.70;;;2.50;;
60867;SDS011;46702;48.370;10.794;2024-01-15T08:23:12;4.60;;;2.95;;
60867;SDS011;46702;48.370;10.794;2024-01-15T08:25:38;6.20;;;3.50;;
60867;SDS011;46702;48.370;10.794;2024-01-15T08:28:04;4.38;;;3.53;;
60867;SDS011;46702;48.370;10.794;2024-01-15T08:30:30;3.35;;;2.70;;
60867;SDS011;46702;48.370;10.794;2024-01-15T08:32:56;4.93;;;3.28;;
60867;SDS011;46702;48.370;10.794;2024-01-15T08:35:22;3.10;;;2.17;;
60867;SDS011;46702;48.370;10.794;2024-01-15T08:37:51;3.92;;;2.97;;
60867;SDS011;46702;48.370;10.794;2024-01-15T08:40:18;3.78;;;3.40;;
60867;SDS011;46702;48.370;10.794;2024-01-15T08:42:44;3.60;;;2.88;;
60867;SDS011;46702;48.370;10.794;2024-01-15T08:45:10;4.53;;;2.70;;
60867;SDS011;46702;48.370;10.794;2024-01-15T08:47:36;4.57;;;2.92;;
60867;SDS011;46702;48.370;10.794;2024-01-15T08:50:02;5.20;;;3.58;;
60867;SDS011;46702;48.370;10.794;2024-01-15T08:52:29;2.95;;;2.65;;
60867;SDS011;46702;48.370;10.794;2024-01-15T08:54:55;2.30;;;2.10;;
60867;SDS011;46702;48.370;10.794;2024-01-15T08:57:24;3.13;;;2.75;;
60867;SDS011;46702;48.370;10.794;2024-01-15T08:59:49;2.92;;;2.72;;
60867;SDS011;46702;48.370;10.794;2024-01-15T09:02:16;4.10;;;1.98;;
60867;SDS011;46702;48.370;10.794;2024-01-15T09:04:41;2.33;;;2.20;;
60867;SDS011;46702;48.370;10.794;2024-01-15T09:07:07;4.00;;;2.33;;
60867;SDS011;46702;48.370;10.794;2024-01-15T09:09:33;3.03;;;2.30;;
60867;SDS011;46702;48.370;10.794;2024-01-15T09:12:00;6.35;;;2.08;;
60867;SDS011;46702;48.370;10.794;2024-01-15T09:14:25;2.10;;;2.00;;
60867;SDS011;46702;48.370;10.794;2024-01-15T09:16:52;3.13;;;2.22;;
60867;SDS011;46702;48.370;10.794;2024-01-15T09:19:18;2.28;;;1.80;;
60867;SDS011;46702;48.370;10.794;2024-01-15T09:21:44;2.42;;;2.22;;
60867;SDS011;46702;48.370;10.794;2024-01-15T09:24:09;4.38;;;2.88;;
60867;SDS011;46702;48.370;10.794;2024-01-15T09:26:35;2.15;;;2.00;;
60867;SDS011;46702;48.370;10.794;2024-01-15T09:29:00;2.15;;;2.05;;
60867;SDS011;46702;48.370;10.794;2024-01-15T09:31:28;2.10;;;1.90;;
60867;SDS011;46702;48.370;10.794;2024-01-15T09:33:54;2.60;;;2.10;;
60867;SDS011;46702;48.370;10.794;2024-01-15T09:36:21;4.20;;;2.28;;
60867;SDS011;46702;48.370;10.794;2024-01-15T09:38:47;2.10;;;1.10;;
60867;SDS011;46702;48.370;10.794;2024-01-15T09:41:13;2.60;;;1.52;;
60867;SDS011;46702;48.370;10.794;2024-01-15T09:43:40;1.85;;;1.73;;
60867;SDS011;46702;48.370;10.794;2024-01-15T09:46:05;1.33;;;1.23;;
60867;SDS011;46702;48.370;10.794;2024-01-15T09:48:31;1.75;;;1.65;;
60867;SDS011;46702;48.370;10.794;2024-01-15T09:50:59;1.05;;;0.98;;
60867;SDS011;46702;48.370;10.794;2024-01-15T09:53:26;4.07;;;1.50;;
60867;SDS011;46702;48.370;10.794;2024-01-15T09:55:52;3.05;;;1.85;;
60867;SDS011;46702;48.370;10.794;2024-01-15T09:58:18;5.28;;;1.70;;
60867;SDS011;46702;48.370;10.794;2024-01-15T10:00:44;0.93;;;0.93;;
60867;SDS011;46702;48.370;10.794;2024-01-15T10:03:12;1.40;;;1.30;;
60867;SDS011;46702;48.370;10.794;2024-01-15T10:05:38;1.40;;;1.40;;
60867;SDS011;46702;48.370;10.794;2024-01-15T10:08:04;1.48;;;1.38;;
60867;SDS011;46702;48.370;10.794;2024-01-15T10:10:30;1.17;;;1.17;;
60867;SDS011;46702;48.370;10.794;2024-01-15T10:12:56;1.52;;;1.25;;
60867;SDS011;46702;48.370;10.794;2024-01-15T10:15:26;1.15;;;1.08;;
60867;SDS011;46702;48.370;10.794;2024-01-15T10:17:51;1.85;;;1.20;;
60867;SDS011;46702;48.370;10.794;2024-01-15T10:20:17;2.10;;;1.02;;
60867;SDS011;46702;48.370;10.794;2024-01-15T10:22:43;1.08;;;1.08;;
60867;SDS011;46702;48.370;10.794;2024-01-15T10:25:11;2.00;;;1.80;;
60867;SDS011;46702;48.370;10.794;2024-01-15T10:27:38;1.33;;;1.23;;
60867;SDS011;46702;48.370;10.794;2024-01-15T10:30:06;1.50;;;1.40;;
60867;SDS011;46702;48.370;10.794;2024-01-15T10:32:32;1.42;;;1.33;;
60867;SDS011;46702;48.370;10.794;2024-01-15T10:34:58;2.35;;;1.55;;
60867;SDS011;46702;48.370;10.794;2024-01-15T10:37:24;2.00;;;1.52;;
60867;SDS011;46702;48.370;10.794;2024-01-15T10:39:50;2.85;;;2.13;;
60867;SDS011;46702;48.370;10.794;2024-01-15T10:42:16;2.85;;;1.90;;
60867;SDS011;46702;48.370;10.794;2024-01-15T10:44:43;1.42;;;1.33;;
60867;SDS011;46702;48.370;10.794;2024-01-15T10:47:09;3.15;;;1.85;;
60867;SDS011;46702;48.370;10.794;2024-01-15T10:49:36;3.80;;;1.60;;
60867;SDS011;46702;48.370;10.794;2024-01-15T10:52:02;1.58;;;1.48;;
60867;SDS011;46702;48.370;10.794;2024-01-15T10:54:28;2.05;;;1.60;;
60867;SDS011;46702;48.370;10.794;2024-01-15T10:56:55;1.40;;;1.30;;
60867;SDS011;46702;48.370;10.794;2024-01-15T10:59:21;1.60;;;1.50;;
60867;SDS011;46702;48.370;10.794;2024-01-15T11:01:48;4.30;;;2.00;;
60867;SDS011;46702;48.370;10.794;2024-01-15T11:04:19;1.95;;;1.85;;
60867;SDS011;46702;48.370;10.794;2024-01-15T11:06:50;1.92;;;1.80;;
60867;SDS011;46702;48.370;10.794;2024-01-15T11:09:21;1.83;;;1.67;;
60867;SDS011;46702;48.370;10.794;2024-01-15T11:11:47;2.10;;;1.90;;
60867;SDS011;46702;48.370;10.794;2024-01-15T11:14:33;1.60;;;1.50;;
60867;SDS011;46702;48.370;10.794;2024-01-15T11:17:08;2.35;;;1.58;;
60867;SDS011;46702;48.370;10.794;2024-01-15T11:19:38;1.75;;;1.55;;
60867;SDS011;46702;48.370;10.794;2024-01-15T11:22:09;2.10;;;1.63;;
60867;SDS011;46702;48.370;10.794;2024-01-15T11:24:39;2.08;;;1.88;;
60867;SDS011;46702;48.370;10.794;2024-01-15T11:27:06;1.42;;;1.33;;
60867;SDS011;46702;48.370;10.794;2024-01-15T11:29:36;2.15;;;1.75;;
60867;SDS011;46702;48.370;10.794;2024-01-15T11:32:06;2.17;;;1.83;;
60867;SDS011;46702;48.370;10.794;2024-01-15T11:37:24;2.25;;;1.50;;
60867;SDS011;46702;48.370;10.794;2024-01-15T11:39:51;2.30;;;2.10;;
60867;SDS011;46702;48.370;10.794;2024-01-15T11:42:22;2.03;;;1.65;;
60867;SDS011;46702;48.370;10.794;2024-01-15T11:44:48;1.17;;;1.17;;
60867;SDS011;46702;48.370;10.794;2024-01-15T11:47:14;1.63;;;1.48;;
60867;SDS011;46702;48.370;10.794;2024-01-15T11:49:58;1.42;;;1.40;;
60867;SDS011;46702;48.370;10.794;2024-01-15T11:52:34;3.55;;;1.85;;
60867;SDS011;46702;48.370;10.794;2024-01-15T12:00:10;1.23;;;1.15;;
60867;SDS011;46702;48.370;10.794;2024-01-15T12:02:44;1.97;;;1.87;;
60867;SDS011;46702;48.370;10.794;2024-01-15T12:05:12;4.97;;;1.90;;
60867;SDS011;46702;48.370;10.794;2024-01-15T12:07:42;2.53;;;2.10;;
60867;SDS011;46702;48.370;10.794;2024-01-15T12:10:12;4.43;;;2.17;;
60867;SDS011;46702;48.370;10.794;2024-01-15T12:15:04;1.63;;;1.52;;
60867;SDS011;46702;48.370;10.794;2024-01-15T12:17:30;2.72;;;1.90;;
60867;SDS011;46702;48.370;10.794;2024-01-15T12:19:56;2.25;;;1.40;;
60867;SDS011;46702;48.370;10.794;2024-01-15T12:22:22;1.92;;;1.63;;
60867;SDS011;46702;48.370;10.794;2024-01-15T12:24:48;2.17;;;1.98;;
60867;SDS011;46702;48.370;10.794;2024-01-15T12:27:13;3.38;;;2.42;;
60867;SDS011;46702;48.370;10.794;2024-01-15T12:29:39;2.55;;;1.80;;
60867;SDS011;46702;48.370;10.794;2024-01-15T12:32:05;2.30;;;2.13;;
60867;SDS011;46702;48.370;10.794;2024-01-15T12:34:31;2.17;;;1.80;;
60867;SDS011;46702;48.370;10.794;2024-01-15T12:36:57;10.93;;;2.25;;
60867;SDS011;46702;48.370;10.794;2024-01-15T12:39:24;2.55;;;2.00;;
60867;SDS011;46702;48.370;10.794;2024-01-15T12:41:50;1.70;;;1.60;;
60867;SDS011;46702;48.370;10.794;2024-01-15T12:44:16;5.05;;;2.58;;
60867;SDS011;46702;48.370;10.794;2024-01-15T12:46:41;3.03;;;2.67;;
60867;SDS011;46702;48.370;10.794;2024-01-15T12:49:08;1.52;;;1.45;;
60867;SDS011;46702;48.370;10.794;2024-01-15T12:51:36;2.95;;;2.50;;
60867;SDS011;46702;48.370;10.794;2024-01-15T12:54:03;2.92;;;2.67;;
60867;SDS011;46702;48.370;10.794;2024-01-15T12:56:29;2.63;;;1.50;;
60867;SDS011;46702;48.370;10.794;2024-01-15T12:58:55;5.60;;;2.28;;
60867;SDS011;46702;48.370;10.794;2024-01-15T13:01:20;2.05;;;1.85;;
60867;SDS011;46702;48.370;10.794;2024-01-15T13:03:46;3.17;;;1.88;;
60867;SDS011;46702;48.370;10.794;2024-01-15T13:06:12;3.28;;;2.85;;
60867;SDS011;46702;48.370;10.794;2024-01-15T13:08:38;1.70;;;1.50;;
60867;SDS011;46702;48.370;10.794;2024-01-15T13:11:03;2.30;;;2.13;;
60867;SDS011;46702;48.370;10.794;2024-01-15T13:13:29;2.65;;;2.03;;
60867;SDS011;46702;48.370;10.794;2024-01-15T13:15:55;6.13;;;2.38;;
60867;SDS011;46702;48.370;10.794;2024-01-15T13:18:21;2.38;;;1.42;;
60867;SDS011;46702;48.370;10.794;2024-01-15T13:20:46;5.20;;;2.53;;
60867;SDS011;46702;48.370;10.794;2024-01-15T13:23:12;1.17;;;1.17;;
60867;SDS011;46702;48.370;10.794;2024-01-15T13:25:37;3.35;;;2.08;;
60867;SDS011;46702;48.370;10.794;2024-01-15T13:28:06;2.10;;;1.88;;
60867;SDS011;46702;48.370;10.794;2024-01-15T13:30:33;2.28;;;2.00;;
60867;SDS011;46702;48.370;10.794;2024-01-15T13:32:58;2.33;;;2.13;;
60867;SDS011;46702;48.370;10.794;2024-01-15T13:35:29;2.42;;;2.03;;
60867;SDS011;46702;48.370;10.794;2024-01-15T13:37:54;1.75;;;1.65;;
60867;SDS011;46702;48.370;10.794;2024-01-15T13:40:20;6.05;;;2.63;;
60867;SDS011;46702;48.370;10.794;2024-01-15T13:42:46;2.55;;;2.35;;
60867;SDS011;46702;48.370;10.794;2024-01-15T13:45:12;3.58;;;1.65;;
60867;SDS011;46702;48.370;10.794;2024-01-15T13:47:41;3.58;;;2.60;;
60867;SDS011;46702;48.370;10.794;2024-01-15T13:50:08;5.40;;;2.35;;
60867;SDS011;46702;48.370;10.794;2024-01-15T13:52:34;3.65;;;2.90;;
60867;SDS011;46702;48.370;10.794;2024-01-15T13:55:01;2.33;;;1.92;;
60867;SDS011;46702;48.370;10.794;2024-01-15T13:57:26;4.78;;;2.67;;
60867;SDS011;46702;48.370;10.794;2024-01-15T13:59:52;5.65;;;2.72;;
60867;SDS011;46702;48.370;10.794;2024-01-15T14:02:18;3.10;;;2.40;;
60867;SDS011;46702;48.370;10.794;2024-01-15T14:04:45;3.67;;;2.40;;
60867;SDS011;46702;48.370;10.794;2024-01-15T14:07:10;3.17;;;2.55;;
60867;SDS011;46702;48.370;10.794;2024-01-15T14:09:36;6.75;;;2.58;;
60867;SDS011;46702;48.370;10.794;2024-01-15T14:12:02;1.85;;;1.73;;
60867;SDS011;46702;48.370;10.794;2024-01-15T14:14:28;2.67;;;2.30;;
60867;SDS011;46702;48.370;10.794;2024-01-15T14:16:54;3.30;;;2.33;;
60867;SDS011;46702;48.370;10.794;2024-01-15T14:19:19;1.90;;;1.80;;
60867;SDS011;46702;48.370;10.794;2024-01-15T14:21:45;4.93;;;2.65;;
60867;SDS011;46702;48.370;10.794;2024-01-15T14:24:11;4.13;;;3.10;;
60867;SDS011;46702;48.370;10.794;2024-01-15T14:26:37;4.80;;;2.85;;
60867;SDS011;46702;48.370;10.794;2024-01-15T14:29:02;10.07;;;5.70;;
60867;SDS011;46702;48.370;10.794;2024-01-15T14:31:28;3.30;;;2.20;;
60867;SDS011;46702;48.370;10.794;2024-01-15T14:33:54;4.78;;;2.97;;
60867;SDS011;46702;48.370;10.794;2024-01-15T14:36:20;5.05;;;3.13;;
60867;SDS011;46702;48.370;10.794;2024-01-15T14:38:46;5.13;;;3.47;;
60867;SDS011;46702;48.370;10.794;2024-01-15T14:41:11;5.22;;;3.10;;